メインページ
METAR-TAF:

METAR-TAF

空港 :

ンドラ空港

ンドラ, ザンビア

緯度: 12-59-50S, 経度: 028-39-50E, 海抜: 1270m

METAR: 見つかりません

時間: 02:11 (00:11 UTC)

予報

当レポートは8時間11分前の16:00(UTC)に作成
予報は23日の 18時(UTC)から 24日の 24時(UTC)まで有効
東/南東の風 10kt
視程10km以上
1,500メートル以下は雲なし、積乱雲なし
24日の 04時(UTC)から 24日の 06時(UTC)まで徐々に
東/南東の風 10kt、最大15ktの突風を伴う
視程: 7000m
24日の 08時(UTC)から 24日の 10時(UTC)まで徐々に
南東の風 10kt
高度4000ftの雲は散在している
24日の 1700時(UTC)から
視程10km以上
1,500メートル以下は雲なし、積乱雲なし

TAF: FLSK 231600Z 2318/2424 12010KT CAVOK BECMG 2404/2406 12010G15KT 7000 FU NSC BECMG 2408/2410 13010KT SCT040 FM241700 CAVOK

4,000以上の空港の気象観測と天気予報(METAR報とTAF報)

利用可能な観測所は地図上に黄色い丸と赤い丸で示す。

丸の上にカーソルを重ねると観測所名を参照できる。

次にクリックすると気象観測と天気予報を参照できる。

マップの切り替え:黒色「×」印の緑ボタンをクリックして拡大、「-」印の緑ボタンをクリックして縮小、緑色の三角印をクリックして隣りの地図に切り替え


METAR-TAF: